createdAt,value
2019-05-25T00:04:30.128Z,1.17
2019-05-25T00:09:34.240Z,1.50
2019-05-25T00:14:38.352Z,1.57
2019-05-25T00:19:42.464Z,1.70
2019-05-25T00:24:46.596Z,1.80
2019-05-25T00:29:50.855Z,1.57
2019-05-25T00:34:55.200Z,1.47
2019-05-25T00:39:59.310Z,1.50
2019-05-25T00:45:03.557Z,1.40
2019-05-25T00:50:07.813Z,1.50
2019-05-25T00:55:12.019Z,1.47
2019-05-25T01:00:18.278Z,1.50
2019-05-25T01:05:22.494Z,1.50
2019-05-25T01:10:26.677Z,1.80
2019-05-25T01:15:30.887Z,2.00
2019-05-25T01:20:35.063Z,1.83
2019-05-25T01:25:39.188Z,1.77
2019-05-25T01:30:43.395Z,1.70
2019-05-25T01:35:53.684Z,1.67
2019-05-25T01:40:57.833Z,1.70
2019-05-25T01:46:01.945Z,1.80
2019-05-25T01:51:08.610Z,1.60
2019-05-25T01:56:12.743Z,1.70
2019-05-25T02:01:17.802Z,1.87
2019-05-25T02:06:21.922Z,1.90
2019-05-25T02:11:27.674Z,1.50
2019-05-25T02:16:33.134Z,1.40
2019-05-25T02:21:37.472Z,1.97
2019-05-25T02:26:41.619Z,1.90
2019-05-25T02:31:45.784Z,2.20
2019-05-25T02:36:49.909Z,1.80
2019-05-25T02:41:54.332Z,1.87
2019-05-25T02:46:58.468Z,2.00
2019-05-25T02:52:02.592Z,1.83
2019-05-25T02:57:07.693Z,1.67
2019-05-25T03:02:11.877Z,1.60
2019-05-25T03:07:22.861Z,1.73
2019-05-25T03:12:23.066Z,1.97
2019-05-25T03:17:27.176Z,1.60
2019-05-25T03:22:31.367Z,1.60
2019-05-25T03:27:35.753Z,1.70
2019-05-25T03:32:39.869Z,1.80
2019-05-25T03:37:43.999Z,1.70
2019-05-25T03:42:49.303Z,2.00
2019-05-25T03:47:53.448Z,1.80
2019-05-25T03:52:57.799Z,1.53
2019-05-25T03:58:04.848Z,1.97
2019-05-25T04:03:13.378Z,1.80
2019-05-25T04:08:17.990Z,1.70
2019-05-25T04:13:22.119Z,1.83
2019-05-25T04:18:26.216Z,2.13
2019-05-25T04:23:31.357Z,1.90
2019-05-25T04:28:37.092Z,1.63
2019-05-25T04:33:41.214Z,1.80
2019-05-25T04:38:45.599Z,1.90
2019-05-25T04:43:49.763Z,1.70
2019-05-25T04:48:53.899Z,2.00
2019-05-25T04:53:58.013Z,1.70
2019-05-25T04:59:02.192Z,1.97
2019-05-25T05:04:06.333Z,2.20
2019-05-25T05:09:10.727Z,1.90
2019-05-25T05:14:16.558Z,2.00
2019-05-25T05:19:21.885Z,2.40
2019-05-25T05:24:26.042Z,2.10
2019-05-25T05:29:30.351Z,2.00
2019-05-25T05:34:34.473Z,2.07
2019-05-25T05:39:41.591Z,2.40
2019-05-25T05:44:46.643Z,2.90
2019-05-25T05:49:50.872Z,2.27
2019-05-25T05:54:56.750Z,2.70
2019-05-25T06:00:02.535Z,2.77
2019-05-25T06:05:06.728Z,2.53
2019-05-25T06:10:11.411Z,2.53
2019-05-25T06:15:16.571Z,2.37
2019-05-25T06:20:20.792Z,2.90
2019-05-25T06:25:25.149Z,3.10
2019-05-25T06:30:29.324Z,2.57
2019-05-25T06:35:35.265Z,2.80
2019-05-25T06:40:39.448Z,2.77
2019-05-25T06:45:43.616Z,2.47
2019-05-25T06:50:48.042Z,2.30
2019-05-25T06:55:53.161Z,2.03
2019-05-25T07:01:00.119Z,2.17
2019-05-25T07:06:04.295Z,2.20
2019-05-25T07:11:13.228Z,1.97
2019-05-25T07:16:14.236Z,2.13
2019-05-25T07:21:19.666Z,1.70
2019-05-25T07:26:23.743Z,2.10
2019-05-25T07:31:28.201Z,1.80
2019-05-25T07:36:32.554Z,1.80
2019-05-25T07:41:36.692Z,1.60
2019-05-25T07:46:40.806Z,1.60
2019-05-25T07:51:46.916Z,1.97
2019-05-25T07:56:51.344Z,1.50
2019-05-25T08:01:55.464Z,1.50
2019-05-25T08:06:59.612Z,1.63
2019-05-25T08:12:03.899Z,1.47
2019-05-25T08:17:08.013Z,1.40
2019-05-25T08:22:13.337Z,1.40
2019-05-25T08:27:17.752Z,1.30
2019-05-25T08:32:24.867Z,1.23
2019-05-25T08:37:29.339Z,1.10
2019-05-25T08:42:33.458Z,1.17
2019-05-25T08:47:37.584Z,1.23
2019-05-25T08:52:41.733Z,1.40
2019-05-25T08:57:46.121Z,1.03
2019-05-25T09:02:55.157Z,1.10
2019-05-25T09:07:59.660Z,1.33
2019-05-25T09:13:03.788Z,1.20
2019-05-25T09:18:07.994Z,1.00
2019-05-25T09:23:12.431Z,0.93
2019-05-25T09:28:19.093Z,1.00
2019-05-25T09:33:23.309Z,1.00
2019-05-25T09:38:28.701Z,1.10
2019-05-25T09:43:34.106Z,1.60
2019-05-25T09:48:38.550Z,1.03
2019-05-25T09:53:42.692Z,0.90
2019-05-25T09:58:47.043Z,0.90
2019-05-25T10:03:51.167Z,0.80
2019-05-25T10:08:55.313Z,0.70
2019-05-25T10:14:01.645Z,0.83
2019-05-25T10:19:05.845Z,1.00
2019-05-25T10:24:10.015Z,1.13
2019-05-25T10:29:14.169Z,1.07
2019-05-25T10:34:19.602Z,1.40
2019-05-25T10:39:25.132Z,0.97
2019-05-25T10:44:29.556Z,1.07
2019-05-25T10:49:35.217Z,0.90
2019-05-25T10:54:41.248Z,1.40
2019-05-25T10:59:53.028Z,1.00
2019-05-25T11:04:51.501Z,1.37
2019-05-25T11:09:55.899Z,1.30
2019-05-25T11:15:00.057Z,1.17
2019-05-25T11:20:05.924Z,1.03
2019-05-25T11:25:10.278Z,1.23
2019-05-25T11:30:14.509Z,1.13
2019-05-25T11:35:20.104Z,1.30
2019-05-25T11:40:25.044Z,1.13
2019-05-25T11:45:29.871Z,1.13
2019-05-25T11:50:36.745Z,1.00
2019-05-25T11:55:42.945Z,1.07
2019-05-25T12:00:47.221Z,1.40
2019-05-25T12:05:51.566Z,1.30
2019-05-25T12:10:55.727Z,1.30
2019-05-25T12:16:00.283Z,1.30
2019-05-25T12:21:04.621Z,1.37
2019-05-25T12:26:09.190Z,1.27
2019-05-25T12:31:15.100Z,1.35
2019-05-25T12:36:21.268Z,1.82
2019-05-25T12:41:26.687Z,1.15
2019-05-25T12:46:33.607Z,1.55
2019-05-25T12:51:37.840Z,1.50
2019-05-25T12:56:42.041Z,1.40
2019-05-25T13:01:51.650Z,1.30
2019-05-25T13:06:55.904Z,1.30
2019-05-25T13:12:03.095Z,1.50
2019-05-25T13:17:11.198Z,1.20
2019-05-25T13:22:19.977Z,1.37
2019-05-25T13:27:25.283Z,1.47
2019-05-25T13:32:31.437Z,1.17
2019-05-25T13:37:35.734Z,1.22
2019-05-25T13:42:45.195Z,1.30
2019-05-25T13:47:50.272Z,1.00
2019-05-25T13:52:54.637Z,1.50
2019-05-25T13:58:00.282Z,1.40
2019-05-25T14:03:10.138Z,1.40
2019-05-25T14:08:19.737Z,1.72
2019-05-25T14:13:24.301Z,1.40
2019-05-25T14:18:28.987Z,1.40
2019-05-25T14:23:33.603Z,1.47
2019-05-25T14:28:40.642Z,1.37
2019-05-25T14:33:45.158Z,1.40
2019-05-25T14:38:50.599Z,1.67
2019-05-25T14:43:56.730Z,1.57
2019-05-25T14:49:00.996Z,1.60
2019-05-25T14:54:06.563Z,1.55
2019-05-25T14:59:10.741Z,1.50
2019-05-25T15:04:19.909Z,1.57
2019-05-25T15:09:24.223Z,1.50
2019-05-25T15:14:29.482Z,1.30
2019-05-25T15:19:36.374Z,1.50
2019-05-25T15:24:41.223Z,1.40
2019-05-25T15:29:45.591Z,1.40
2019-05-25T15:34:50.048Z,1.40
2019-05-25T15:39:55.806Z,1.25
2019-05-25T15:45:00.162Z,1.25
2019-05-25T15:50:05.369Z,1.60
2019-05-25T15:55:10.878Z,1.20
2019-05-25T16:00:15.316Z,1.30
2019-05-25T16:05:19.742Z,1.25
2019-05-25T16:10:24.076Z,1.30
2019-05-25T16:15:34.505Z,1.20
2019-05-25T16:20:38.931Z,1.10
2019-05-25T16:25:43.273Z,1.20
2019-05-25T16:30:48.849Z,1.07
2019-05-25T16:35:53.046Z,1.40
2019-05-25T16:40:57.873Z,1.22
2019-05-25T16:46:02.107Z,1.72
2019-05-25T16:51:06.517Z,1.30
2019-05-25T16:56:10.658Z,1.45
2019-05-25T17:01:17.842Z,2.05
2019-05-25T17:06:27.426Z,1.82
2019-05-25T17:11:28.097Z,1.77
2019-05-25T17:16:32.813Z,2.00
2019-05-25T17:21:37.257Z,1.50
2019-05-25T17:26:41.654Z,1.80
2019-05-25T17:31:45.788Z,2.03
2019-05-25T17:36:50.837Z,1.90
2019-05-25T17:41:55.091Z,1.60
2019-05-25T17:46:59.923Z,1.50
2019-05-25T17:52:04.144Z,1.33
2019-05-25T17:57:11.723Z,1.13
2019-05-25T18:02:15.839Z,1.37
2019-05-25T18:07:21.560Z,1.60
2019-05-25T18:12:25.704Z,1.67
2019-05-25T18:17:32.945Z,1.27
2019-05-25T18:22:37.101Z,1.20
2019-05-25T18:27:42.532Z,1.10
2019-05-25T18:32:46.906Z,1.10
2019-05-25T18:37:53.080Z,1.40
2019-05-25T18:42:57.292Z,1.53
2019-05-25T18:48:01.910Z,1.60
2019-05-25T18:53:07.180Z,1.37
2019-05-25T18:58:11.632Z,1.60
2019-05-25T19:03:15.768Z,1.40
2019-05-25T19:08:21.330Z,1.50
2019-05-25T19:13:25.460Z,1.33
2019-05-25T19:18:29.918Z,1.30
2019-05-25T19:23:34.320Z,1.20
2019-05-25T19:28:38.465Z,1.13
2019-05-25T19:33:43.547Z,1.30
2019-05-25T19:38:47.711Z,1.40
2019-05-25T19:43:53.371Z,1.20
2019-05-25T19:48:57.869Z,1.37
2019-05-25T19:54:02.280Z,1.87
2019-05-25T19:59:07.407Z,1.80
2019-05-25T20:04:12.560Z,1.60
2019-05-25T20:09:16.721Z,1.90
2019-05-25T20:14:20.861Z,1.83
2019-05-25T20:19:26.427Z,1.83
2019-05-25T20:24:30.568Z,1.87
2019-05-25T20:29:34.751Z,1.90
2019-05-25T20:34:38.910Z,1.60
2019-05-25T20:39:44.336Z,1.60
2019-05-25T20:44:48.707Z,1.53
2019-05-25T20:49:54.469Z,1.40
2019-05-25T20:54:58.838Z,1.50
2019-05-25T21:00:04.006Z,1.23
2019-05-25T21:05:10.409Z,1.43
2019-05-25T21:10:14.637Z,1.27
2019-05-25T21:15:18.878Z,1.47
2019-05-25T21:20:23.298Z,1.20
2019-05-25T21:25:27.613Z,1.33
2019-05-25T21:30:32.956Z,1.10
2019-05-25T21:35:38.164Z,1.13
2019-05-25T21:40:42.259Z,1.40
2019-05-25T21:45:48.121Z,1.63
2019-05-25T21:50:55.201Z,1.20
2019-05-25T21:56:01.195Z,1.30
2019-05-25T22:01:05.418Z,1.17
2019-05-25T22:06:23.162Z,1.23
2019-05-25T22:11:17.673Z,1.23
2019-05-25T22:16:22.358Z,1.57
2019-05-25T22:21:27.398Z,1.30
2019-05-25T22:26:31.509Z,1.27
2019-05-25T22:31:37.517Z,1.30
2019-05-25T22:36:41.652Z,1.40
2019-05-25T22:41:47.002Z,1.23
2019-05-25T22:46:51.099Z,1.10
2019-05-25T22:51:55.207Z,1.20
2019-05-25T22:56:59.554Z,1.30
2019-05-25T23:02:04.910Z,1.70
2019-05-25T23:07:10.677Z,1.43
2019-05-25T23:12:15.047Z,1.27
2019-05-25T23:17:20.125Z,1.57
2019-05-25T23:22:25.497Z,1.40
2019-05-25T23:27:29.590Z,1.73
2019-05-25T23:32:38.013Z,1.50
2019-05-25T23:37:42.166Z,1.30
2019-05-25T23:42:46.295Z,1.40
2019-05-25T23:47:50.511Z,1.60
2019-05-25T23:52:55.700Z,1.50
2019-05-25T23:58:00.096Z,1.20
